Time;durP1;ratioP1;P1;durP2;ratioP2;P2;SDS_P1;SDS_P2;PMS_P1;PMS_P2;Temp;Humidity;BMP_temperature;BMP_pressure;BME280_temperature;BME280_humidity;BME280_pressure;Samples;Min_cycle;Max_cycle;Signal;HPM_P1;HPM_P2
2024/01/25 00:00:20;;;;;;;11.47;2.57;;;;;;;;;;5090962;28;20179;-78
2024/01/25 00:02:46;;;;;;;8.97;2.43;;;;;;;;;;5072098;28;20666;-79
2024/01/25 00:05:12;;;;;;;9.67;2.17;;;;;;;;;;5069785;28;20210;-78
2024/01/25 00:07:47;;;;;;;8.93;2.57;;;;;;;;;;5067636;28;20213;-77
2024/01/25 00:10:14;;;;;;;11.30;2.50;;;;;;;;;;5090280;28;20225;-78
2024/01/25 00:12:41;;;;;;;13.23;2.70;;;;;;;;;;5072001;28;20272;-80
2024/01/25 00:15:07;;;;;;;19.67;3.97;;;;;;;;;;5073045;28;20690;-80
2024/01/25 00:17:33;;;;;;;17.37;3.03;;;;;;;;;;5069845;28;20578;-79
2024/01/25 00:19:59;;;;;;;12.20;2.70;;;;;;;;;;5071027;28;20215;-80
2024/01/25 00:22:26;;;;;;;13.50;3.30;;;;;;;;;;5071230;28;20214;-79
2024/01/25 00:24:52;;;;;;;10.23;2.93;;;;;;;;;;5066380;28;20289;-79
2024/01/25 00:27:17;;;;;;;13.53;3.07;;;;;;;;;;5070979;28;20270;-79
2024/01/25 00:29:44;;;;;;;11.70;2.87;;;;;;;;;;5077987;28;20679;-79
2024/01/25 00:32:10;;;;;;;13.23;2.87;;;;;;;;;;5075162;28;20233;-80
2024/01/25 00:34:36;;;;;;;14.93;3.13;;;;;;;;;;5062700;28;20238;-79
2024/01/25 00:37:02;;;;;;;11.83;2.10;;;;;;;;;;5082086;28;20202;-77
2024/01/25 00:39:28;;;;;;;13.33;3.20;;;;;;;;;;5077804;28;20171;-79
2024/01/25 00:41:57;;;;;;;7.73;1.90;;;;;;;;;;5081619;28;20186;-77
2024/01/25 00:44:23;;;;;;;13.27;3.00;;;;;;;;;;5054204;28;20206;-79
2024/01/25 00:46:50;;;;;;;13.83;2.37;;;;;;;;;;5060424;28;20235;-77
2024/01/25 00:49:16;;;;;;;5.27;1.73;;;;;;;;;;5081021;28;20320;-79
2024/01/25 00:51:47;;;;;;;12.57;1.97;;;;;;;;;;5079265;28;20661;-79
2024/01/25 00:54:13;;;;;;;14.33;2.70;;;;;;;;;;5079093;28;20245;-78
2024/01/25 00:56:40;;;;;;;15.83;3.23;;;;;;;;;;5078308;28;20220;-78
2024/01/25 00:59:06;;;;;;;12.63;2.67;;;;;;;;;;5078177;28;20248;-78
2024/01/25 01:01:32;;;;;;;10.43;2.60;;;;;;;;;;5082928;28;20256;-78
2024/01/25 01:03:59;;;;;;;8.30;1.90;;;;;;;;;;5076503;28;20210;-78
2024/01/25 01:06:25;;;;;;;18.60;3.57;;;;;;;;;;5079256;28;20721;-78
2024/01/25 01:08:52;;;;;;;8.80;2.47;;;;;;;;;;5073922;28;20241;-78
2024/01/25 01:11:18;;;;;;;9.30;2.27;;;;;;;;;;5055962;28;20218;-78
2024/01/25 01:13:44;;;;;;;9.77;1.93;;;;;;;;;;5079206;28;20876;-78
2024/01/25 01:16:10;;;;;;;9.23;2.37;;;;;;;;;;5078312;28;20210;-77
2024/01/25 01:18:38;;;;;;;9.30;2.13;;;;;;;;;;5080402;28;20706;-78
2024/01/25 01:21:04;;;;;;;9.70;2.27;;;;;;;;;;5085949;28;20170;-78
2024/01/25 01:23:30;;;;;;;9.83;2.20;;;;;;;;;;5078739;28;20234;-77
2024/01/25 01:25:56;;;;;;;12.07;2.90;;;;;;;;;;5077113;28;20292;-77
2024/01/25 01:28:22;;;;;;;11.63;2.53;;;;;;;;;;5083979;28;20356;-76
2024/01/25 01:30:51;;;;;;;10.13;2.80;;;;;;;;;;5081283;28;20215;-78
2024/01/25 01:33:17;;;;;;;13.80;2.97;;;;;;;;;;5082179;28;20217;-78
2024/01/25 01:35:43;;;;;;;13.13;2.50;;;;;;;;;;5075369;28;20175;-78
2024/01/25 01:38:09;;;;;;;7.73;2.23;;;;;;;;;;5081680;28;20712;-78
2024/01/25 01:40:35;;;;;;;11.33;2.20;;;;;;;;;;5076984;28;20213;-78
2024/01/25 01:43:01;;;;;;;10.97;3.37;;;;;;;;;;5078861;28;20213;-79
2024/01/25 01:45:27;;;;;;;12.37;2.73;;;;;;;;;;5069148;28;20261;-78
2024/01/25 01:47:54;;;;;;;15.17;2.27;;;;;;;;;;5078309;28;20182;-79
2024/01/25 01:50:20;;;;;;;6.53;2.07;;;;;;;;;;5074652;28;20214;-78
2024/01/25 01:52:47;;;;;;;10.47;1.97;;;;;;;;;;5072745;28;20210;-79
2024/01/25 01:55:13;;;;;;;11.50;1.90;;;;;;;;;;5078043;28;20708;-78
2024/01/25 01:57:39;;;;;;;10.83;2.27;;;;;;;;;;5076916;28;20208;-79
2024/01/25 02:00:08;;;;;;;10.67;3.10;;;;;;;;;;5058026;28;20206;-78
2024/01/25 02:02:34;;;;;;;11.30;2.47;;;;;;;;;;5075445;28;20289;-78
2024/01/25 02:05:00;;;;;;;10.13;2.87;;;;;;;;;;5077285;28;20471;-78
2024/01/25 02:07:26;;;;;;;15.70;2.23;;;;;;;;;;5077274;28;20210;-78
2024/01/25 02:09:52;;;;;;;12.13;2.90;;;;;;;;;;5070560;28;20257;-78
2024/01/25 02:12:19;;;;;;;13.27;2.60;;;;;;;;;;5077862;28;20197;-79
2024/01/25 02:14:45;;;;;;;7.17;2.40;;;;;;;;;;5077535;28;20261;-78
2024/01/25 02:17:11;;;;;;;10.83;3.30;;;;;;;;;;5074924;28;20212;-78
2024/01/25 02:19:37;;;;;;;12.13;2.90;;;;;;;;;;5077684;28;20301;-78
2024/01/25 02:22:05;;;;;;;9.37;2.83;;;;;;;;;;5069662;28;20781;-78
2024/01/25 02:24:31;;;;;;;15.07;3.37;;;;;;;;;;5076894;28;20605;-79
2024/01/25 02:26:57;;;;;;;14.20;2.43;;;;;;;;;;5077760;28;20179;-78
2024/01/25 02:29:23;;;;;;;14.30;2.47;;;;;;;;;;5078406;28;20787;-80
2024/01/25 02:31:49;;;;;;;11.07;3.13;;;;;;;;;;5079817;28;20294;-79
2024/01/25 02:34:15;;;;;;;14.20;2.37;;;;;;;;;;5077086;28;20213;-78
2024/01/25 02:36:41;;;;;;;10.63;3.63;;;;;;;;;;5065328;28;20210;-78
2024/01/25 02:39:07;;;;;;;12.30;2.80;;;;;;;;;;5079508;28;20264;-79
2024/01/25 02:41:33;;;;;;;15.37;2.40;;;;;;;;;;5075879;28;20209;-77
2024/01/25 02:44:00;;;;;;;13.23;2.77;;;;;;;;;;5078301;28;20555;-78
2024/01/25 02:46:26;;;;;;;13.00;3.40;;;;;;;;;;5076198;28;20210;-79
2024/01/25 02:48:52;;;;;;;15.47;2.83;;;;;;;;;;5068514;28;20265;-76
2024/01/25 02:51:18;;;;;;;9.40;2.13;;;;;;;;;;5073164;28;20825;-77
2024/01/25 02:53:44;;;;;;;7.37;2.63;;;;;;;;;;5079207;28;20203;-77
2024/01/25 02:56:10;;;;;;;7.53;2.43;;;;;;;;;;5059147;28;20285;-77
2024/01/25 02:58:36;;;;;;;16.00;2.53;;;;;;;;;;5078847;28;20632;-78
2024/01/25 03:01:02;;;;;;;14.80;2.60;;;;;;;;;;5075835;28;20285;-78
2024/01/25 03:03:28;;;;;;;12.73;2.63;;;;;;;;;;5057096;28;20227;-75
2024/01/25 03:05:54;;;;;;;14.57;2.90;;;;;;;;;;5074838;28;20185;-77
2024/01/25 03:08:20;;;;;;;14.77;2.47;;;;;;;;;;5069761;28;20290;-77
2024/01/25 03:10:49;;;;;;;12.97;2.73;;;;;;;;;;5067759;28;20217;-78
2024/01/25 03:13:16;;;;;;;14.07;2.93;;;;;;;;;;5075507;28;20207;-78
2024/01/25 03:15:42;;;;;;;13.97;2.47;;;;;;;;;;5062447;28;20214;-77
2024/01/25 03:18:08;;;;;;;7.47;2.13;;;;;;;;;;5076232;28;20650;-76
2024/01/25 03:20:34;;;;;;;11.33;2.57;;;;;;;;;;5063179;28;20179;-76
2024/01/25 03:23:00;;;;;;;14.47;2.53;;;;;;;;;;5073424;28;20280;-78
2024/01/25 03:25:26;;;;;;;6.20;1.93;;;;;;;;;;5082480;28;20206;-77
2024/01/25 03:27:52;;;;;;;14.03;2.60;;;;;;;;;;5073700;28;20709;-78
2024/01/25 03:30:18;;;;;;;13.83;3.17;;;;;;;;;;5063206;28;20198;-77
2024/01/25 03:32:44;;;;;;;8.80;2.63;;;;;;;;;;5075307;28;20206;-78
2024/01/25 03:35:10;;;;;;;13.20;2.63;;;;;;;;;;5051260;28;20236;-78
2024/01/25 03:37:36;;;;;;;16.90;3.47;;;;;;;;;;5079653;28;20578;-77
2024/01/25 03:40:03;;;;;;;13.83;2.90;;;;;;;;;;5061901;28;20293;-78
2024/01/25 03:42:29;;;;;;;11.23;3.20;;;;;;;;;;5056997;28;20686;-77
2024/01/25 03:44:55;;;;;;;10.87;2.37;;;;;;;;;;5075331;28;20231;-78
2024/01/25 03:47:21;;;;;;;19.43;2.80;;;;;;;;;;5054867;28;20210;-79
2024/01/25 03:49:47;;;;;;;13.93;3.27;;;;;;;;;;5074287;28;20221;-78
2024/01/25 03:52:13;;;;;;;14.10;2.93;;;;;;;;;;5081492;28;20295;-78
2024/01/25 03:54:39;;;;;;;12.90;2.60;;;;;;;;;;5082580;28;20260;-79
2024/01/25 03:57:05;;;;;;;11.93;3.20;;;;;;;;;;5086811;28;20167;-79
2024/01/25 03:59:31;;;;;;;17.33;2.77;;;;;;;;;;5070124;28;20199;-78
2024/01/25 04:01:57;;;;;;;15.10;2.47;;;;;;;;;;5066276;28;20210;-78
2024/01/25 04:04:23;;;;;;;10.20;2.87;;;;;;;;;;5065690;28;20263;-76
2024/01/25 04:06:49;;;;;;;17.60;2.73;;;;;;;;;;5064934;28;20215;-77
2024/01/25 04:09:15;;;;;;;12.50;2.50;;;;;;;;;;5076546;28;20205;-78
2024/01/25 04:11:41;;;;;;;11.80;3.60;;;;;;;;;;5072140;28;20641;-79
2024/01/25 04:14:07;;;;;;;11.83;3.30;;;;;;;;;;5069318;28;20858;-78
2024/01/25 04:16:34;;;;;;;13.53;3.30;;;;;;;;;;5072503;28;20213;-79
2024/01/25 04:19:00;;;;;;;9.70;2.33;;;;;;;;;;5065349;28;20208;-78
2024/01/25 04:21:27;;;;;;;12.30;2.80;;;;;;;;;;5067768;28;20190;-78
2024/01/25 04:23:53;;;;;;;11.23;2.93;;;;;;;;;;5057171;28;20230;-78
2024/01/25 04:26:19;;;;;;;11.37;2.27;;;;;;;;;;5075532;28;20805;-77
2024/01/25 04:28:45;;;;;;;10.03;2.43;;;;;;;;;;5073282;28;20211;-78
2024/01/25 04:31:11;;;;;;;10.07;2.23;;;;;;;;;;5075705;28;20218;-77
2024/01/25 04:33:40;;;;;;;15.30;4.60;;;;;;;;;;5075125;28;20739;-77
2024/01/25 04:36:06;;;;;;;10.37;2.70;;;;;;;;;;5073328;28;20265;-78
2024/01/25 04:38:32;;;;;;;8.83;2.03;;;;;;;;;;5078517;28;20218;-79
2024/01/25 04:40:58;;;;;;;15.50;2.60;;;;;;;;;;5073002;28;20206;-79
2024/01/25 04:43:24;;;;;;;9.90;2.60;;;;;;;;;;5051245;28;20214;-79
2024/01/25 04:45:50;;;;;;;11.67;2.30;;;;;;;;;;5076137;28;20715;-76
2024/01/25 04:48:16;;;;;;;16.67;2.77;;;;;;;;;;5074292;28;20646;-78
2024/01/25 04:50:42;;;;;;;13.97;3.30;;;;;;;;;;5077767;28;20205;-78
2024/01/25 04:53:08;;;;;;;7.70;2.00;;;;;;;;;;5063413;28;20657;-78
2024/01/25 04:55:34;;;;;;;13.23;2.90;;;;;;;;;;5080561;28;20208;-78
2024/01/25 04:58:00;;;;;;;13.03;3.90;;;;;;;;;;5074421;28;20297;-78
2024/01/25 05:00:26;;;;;;;16.55;3.00;;;;;;;;;;5053770;28;20496;-78
2024/01/25 05:02:52;;;;;;;10.77;2.33;;;;;;;;;;5074906;28;20274;-79
2024/01/25 05:05:18;;;;;;;10.60;2.60;;;;;;;;;;5075118;28;20595;-77
2024/01/25 05:07:44;;;;;;;11.40;2.53;;;;;;;;;;5073041;28;20214;-78
2024/01/25 05:10:10;;;;;;;15.77;3.60;;;;;;;;;;5060301;28;20214;-79
2024/01/25 05:12:36;;;;;;;10.13;2.67;;;;;;;;;;5070408;28;20628;-79
2024/01/25 05:15:02;;;;;;;14.97;2.63;;;;;;;;;;5074971;28;20188;-79
2024/01/25 05:17:28;;;;;;;9.87;1.93;;;;;;;;;;5071408;28;20219;-78
2024/01/25 05:19:54;;;;;;;14.00;2.63;;;;;;;;;;5068995;28;20210;-78
2024/01/25 05:22:21;;;;;;;12.90;2.03;;;;;;;;;;5077632;28;20206;-78
2024/01/25 05:24:47;;;;;;;12.67;3.13;;;;;;;;;;5073298;28;20218;-77
2024/01/25 05:27:13;;;;;;;12.43;3.07;;;;;;;;;;5074720;28;20262;-78
2024/01/25 05:29:39;;;;;;;7.60;1.80;;;;;;;;;;5076553;28;20253;-78
2024/01/25 05:32:05;;;;;;;11.53;2.47;;;;;;;;;;5076974;28;20207;-78
2024/01/25 05:34:31;;;;;;;12.17;3.20;;;;;;;;;;5078705;28;20211;-78
2024/01/25 05:36:57;;;;;;;12.83;2.83;;;;;;;;;;5058568;28;20561;-76
2024/01/25 05:39:23;;;;;;;10.20;2.23;;;;;;;;;;5082450;28;20214;-77
2024/01/25 05:41:49;;;;;;;7.73;2.00;;;;;;;;;;5073172;28;20187;-76
2024/01/25 05:44:15;;;;;;;11.73;2.07;;;;;;;;;;5081779;28;20207;-77
2024/01/25 05:46:41;;;;;;;11.63;2.17;;;;;;;;;;5058982;28;20579;-78
2024/01/25 05:49:07;;;;;;;16.53;2.77;;;;;;;;;;5075280;28;20218;-78
2024/01/25 05:51:33;;;;;;;13.73;2.73;;;;;;;;;;5080042;28;20218;-78
2024/01/25 05:53:59;;;;;;;14.90;3.23;;;;;;;;;;5073110;28;20241;-78
2024/01/25 05:56:25;;;;;;;9.73;3.10;;;;;;;;;;5058979;28;20214;-78
2024/01/25 05:58:52;;;;;;;11.23;1.97;;;;;;;;;;5070529;28;20795;-78
2024/01/25 06:01:18;;;;;;;9.07;2.80;;;;;;;;;;5061002;28;20594;-77
2024/01/25 06:03:44;;;;;;;15.33;2.80;;;;;;;;;;5069991;28;20210;-77
2024/01/25 06:06:10;;;;;;;13.23;2.43;;;;;;;;;;5050076;28;20875;-78
2024/01/25 06:08:36;;;;;;;14.70;2.40;;;;;;;;;;5078891;28;20257;-77
2024/01/25 06:11:03;;;;;;;13.23;2.80;;;;;;;;;;5044643;28;20300;-78
2024/01/25 06:13:29;;;;;;;15.23;2.50;;;;;;;;;;5079651;28;20219;-77
2024/01/25 06:15:55;;;;;;;8.90;2.23;;;;;;;;;;5075367;28;20233;-78
2024/01/25 06:18:21;;;;;;;7.37;2.27;;;;;;;;;;5058315;28;20183;-78
2024/01/25 06:20:47;;;;;;;12.63;2.60;;;;;;;;;;5054688;28;20230;-77
2024/01/25 06:23:13;;;;;;;17.77;3.03;;;;;;;;;;5050681;28;20292;-77
2024/01/25 06:25:39;;;;;;;9.17;2.60;;;;;;;;;;5066157;28;20787;-77
2024/01/25 06:28:05;;;;;;;13.47;2.03;;;;;;;;;;5039923;28;20213;-77
2024/01/25 06:30:31;;;;;;;12.73;2.20;;;;;;;;;;5066659;28;20234;-77
2024/01/25 06:32:57;;;;;;;12.50;2.07;;;;;;;;;;5056004;28;20250;-76
2024/01/25 06:35:23;;;;;;;12.27;2.13;;;;;;;;;;5057222;28;20647;-77
2024/01/25 06:37:49;;;;;;;11.67;2.93;;;;;;;;;;5067937;28;20226;-78
2024/01/25 06:40:15;;;;;;;12.40;2.77;;;;;;;;;;5069284;28;20535;-77
2024/01/25 06:42:42;;;;;;;12.50;2.20;;;;;;;;;;5050410;28;20719;-78
2024/01/25 06:45:09;;;;;;;13.90;3.20;;;;;;;;;;5068765;28;20209;-77
2024/01/25 06:47:35;;;;;;;17.63;2.47;;;;;;;;;;5078480;28;20167;-79
2024/01/25 06:50:01;;;;;;;11.27;3.07;;;;;;;;;;5071133;28;20265;-78
2024/01/25 06:52:28;;;;;;;13.13;2.03;;;;;;;;;;5073561;28;20242;-77
2024/01/25 06:54:54;;;;;;;15.63;2.73;;;;;;;;;;5078264;28;20609;-77
2024/01/25 06:57:20;;;;;;;11.50;2.20;;;;;;;;;;5069843;28;20578;-77
2024/01/25 06:59:46;;;;;;;8.80;2.00;;;;;;;;;;5067135;28;20592;-79
2024/01/25 07:02:12;;;;;;;10.60;2.00;;;;;;;;;;5069254;28;20268;-79
2024/01/25 07:04:40;;;;;;;8.23;2.13;;;;;;;;;;5059357;28;20229;-77
2024/01/25 07:07:06;;;;;;;11.87;2.03;;;;;;;;;;5069317;28;20199;-78
2024/01/25 07:09:32;;;;;;;6.60;1.43;;;;;;;;;;5063770;28;20217;-79
2024/01/25 07:11:58;;;;;;;10.83;2.60;;;;;;;;;;5073261;28;20684;-77
2024/01/25 07:14:24;;;;;;;11.13;1.77;;;;;;;;;;5072262;28;20210;-77
2024/01/25 07:16:50;;;;;;;12.37;2.40;;;;;;;;;;5066195;28;20215;-77
2024/01/25 07:19:16;;;;;;;14.00;2.07;;;;;;;;;;5068269;28;20203;-77
2024/01/25 07:21:45;;;;;;;6.87;2.10;;;;;;;;;;5052543;28;20610;-78
2024/01/25 07:24:11;;;;;;;12.37;2.23;;;;;;;;;;5073910;28;20203;-77
2024/01/25 07:26:37;;;;;;;8.87;2.30;;;;;;;;;;5070328;28;20179;-78
2024/01/25 07:29:04;;;;;;;9.73;1.90;;;;;;;;;;5055939;28;20206;-78
2024/01/25 07:31:30;;;;;;;13.10;2.30;;;;;;;;;;5077711;28;20627;-76
2024/01/25 07:33:56;;;;;;;10.70;2.07;;;;;;;;;;5076214;28;20218;-77
2024/01/25 07:36:22;;;;;;;10.27;2.10;;;;;;;;;;5076813;28;20175;-77
2024/01/25 07:38:48;;;;;;;13.77;3.00;;;;;;;;;;5077620;28;20589;-77
2024/01/25 07:41:15;;;;;;;13.73;3.13;;;;;;;;;;5071684;28;20261;-76
2024/01/25 07:43:41;;;;;;;8.87;2.10;;;;;;;;;;5047253;28;20313;-77
2024/01/25 07:46:07;;;;;;;11.03;2.23;;;;;;;;;;5075042;28;20835;-75
2024/01/25 07:48:33;;;;;;;11.63;2.47;;;;;;;;;;5063522;28;20265;-74
2024/01/25 07:51:00;;;;;;;7.27;2.37;;;;;;;;;;5066490;28;20221;-77
2024/01/25 07:53:26;;;;;;;13.43;3.10;;;;;;;;;;5038572;28;20315;-77
2024/01/25 07:55:52;;;;;;;10.97;2.53;;;;;;;;;;5065919;28;20839;-77
2024/01/25 07:58:18;;;;;;;10.80;3.10;;;;;;;;;;5064283;28;20211;-77
2024/01/25 08:00:45;;;;;;;9.63;2.20;;;;;;;;;;5071691;28;20590;-77
2024/01/25 08:03:11;;;;;;;9.93;2.07;;;;;;;;;;5079307;28;20219;-78
2024/01/25 08:05:37;;;;;;;7.80;2.33;;;;;;;;;;5084152;28;20261;-76
2024/01/25 08:08:03;;;;;;;11.40;2.30;;;;;;;;;;5079446;28;20222;-80
2024/01/25 08:10:29;;;;;;;12.07;2.70;;;;;;;;;;5080916;28;20747;-75
2024/01/25 08:12:55;;;;;;;14.87;3.00;;;;;;;;;;5080318;28;20298;-75
2024/01/25 08:15:21;;;;;;;10.50;2.10;;;;;;;;;;5056956;28;20183;-76
2024/01/25 08:17:47;;;;;;;12.03;2.40;;;;;;;;;;5081712;28;20197;-76
2024/01/25 08:20:13;;;;;;;13.53;2.43;;;;;;;;;;5079037;28;20206;-76
2024/01/25 08:22:41;;;;;;;17.97;2.33;;;;;;;;;;5075785;28;20299;-76
2024/01/25 08:25:08;;;;;;;9.10;2.30;;;;;;;;;;5078765;28;20225;-75
2024/01/25 08:27:34;;;;;;;6.87;1.80;;;;;;;;;;5078415;28;20214;-75
2024/01/25 08:30:00;;;;;;;15.50;2.87;;;;;;;;;;5060063;28;20228;-74
2024/01/25 08:32:26;;;;;;;10.73;2.37;;;;;;;;;;5079615;28;20771;-76
2024/01/25 08:34:52;;;;;;;16.67;3.20;;;;;;;;;;5082412;28;20214;-75
2024/01/25 08:37:18;;;;;;;13.13;2.83;;;;;;;;;;5055945;28;20297;-74
2024/01/25 08:39:45;;;;;;;9.73;2.83;;;;;;;;;;5079817;28;20704;-75
2024/01/25 08:42:12;;;;;;;6.80;2.00;;;;;;;;;;5077685;28;20617;-76
2024/01/25 08:44:39;;;;;;;14.87;2.50;;;;;;;;;;5081716;28;20186;-73
2024/01/25 08:47:05;;;;;;;11.40;2.10;;;;;;;;;;5078687;28;20222;-76
2024/01/25 08:49:31;;;;;;;12.33;3.17;;;;;;;;;;5078651;28;20306;-76
2024/01/25 08:51:57;;;;;;;11.77;3.37;;;;;;;;;;5075025;28;20211;-76
2024/01/25 08:54:23;;;;;;;16.43;2.50;;;;;;;;;;5066400;28;20199;-76
2024/01/25 08:56:49;;;;;;;9.30;2.30;;;;;;;;;;5074381;28;20699;-74
2024/01/25 08:59:15;;;;;;;14.87;2.90;;;;;;;;;;5079592;28;20260;-76
2024/01/25 09:01:41;;;;;;;13.37;2.43;;;;;;;;;;5074604;28;20210;-75
2024/01/25 09:04:08;;;;;;;13.57;2.90;;;;;;;;;;5076933;28;20222;-75
2024/01/25 09:06:34;;;;;;;14.43;2.80;;;;;;;;;;5080719;28;20716;-76
2024/01/25 09:09:00;;;;;;;11.37;3.10;;;;;;;;;;5056423;28;20313;-75
2024/01/25 09:11:26;;;;;;;10.33;2.57;;;;;;;;;;5057603;28;20219;-76
2024/01/25 09:13:52;;;;;;;6.80;2.03;;;;;;;;;;5076545;28;20222;-75
2024/01/25 09:16:18;;;;;;;7.27;2.23;;;;;;;;;;5056621;28;20236;-73
2024/01/25 09:18:44;;;;;;;9.13;2.40;;;;;;;;;;5082070;28;20213;-74
2024/01/25 09:21:10;;;;;;;12.43;2.53;;;;;;;;;;5060452;28;20190;-74
2024/01/25 09:23:36;;;;;;;12.97;2.63;;;;;;;;;;5074726;28;20652;-75
2024/01/25 09:26:02;;;;;;;11.73;2.33;;;;;;;;;;5069466;28;20333;-76
2024/01/25 09:28:28;;;;;;;9.13;2.30;;;;;;;;;;5076921;28;20218;-74
2024/01/25 09:30:54;;;;;;;15.10;3.10;;;;;;;;;;5077044;28;20248;-75
2024/01/25 09:33:20;;;;;;;13.67;2.93;;;;;;;;;;5079006;28;20637;-75
2024/01/25 09:35:47;;;;;;;8.27;2.50;;;;;;;;;;5076002;28;20185;-75
2024/01/25 09:38:13;;;;;;;8.77;2.20;;;;;;;;;;5078317;28;20211;-76
2024/01/25 09:40:39;;;;;;;7.47;2.07;;;;;;;;;;5078834;28;20623;-77
2024/01/25 09:43:05;;;;;;;10.57;2.77;;;;;;;;;;5074046;28;20246;-76
2024/01/25 09:45:32;;;;;;;12.70;2.50;;;;;;;;;;5081805;28;20275;-76
2024/01/25 09:47:58;;;;;;;11.73;2.93;;;;;;;;;;5076611;28;20632;-74
2024/01/25 09:50:24;;;;;;;8.23;2.47;;;;;;;;;;5053846;28;20302;-77
2024/01/25 09:52:57;;;;;;;10.93;2.93;;;;;;;;;;5078434;28;20738;-74
2024/01/25 09:55:26;;;;;;;6.00;2.10;;;;;;;;;;5043869;28;20206;-75
2024/01/25 09:57:54;;;;;;;11.90;2.73;;;;;;;;;;5077572;28;20210;-76
2024/01/25 10:00:21;;;;;;;13.97;3.13;;;;;;;;;;5077846;28;20185;-77
2024/01/25 10:02:49;;;;;;;9.97;2.80;;;;;;;;;;5080616;28;20178;-76
2024/01/25 10:05:15;;;;;;;12.17;2.77;;;;;;;;;;5073373;28;20262;-77
2024/01/25 10:07:42;;;;;;;12.43;2.57;;;;;;;;;;5076780;28;20315;-76
2024/01/25 10:10:08;;;;;;;10.70;2.67;;;;;;;;;;5074142;28;20223;-75
2024/01/25 10:12:35;;;;;;;16.23;2.43;;;;;;;;;;5077274;28;20814;-75
2024/01/25 10:15:01;;;;;;;21.33;3.60;;;;;;;;;;5079948;28;20893;-73
2024/01/25 10:17:29;;;;;;;11.00;1.97;;;;;;;;;;5077626;28;20211;-76
2024/01/25 10:19:55;;;;;;;6.07;2.20;;;;;;;;;;5074652;28;20215;-76
2024/01/25 10:22:21;;;;;;;8.87;2.53;;;;;;;;;;5074939;28;20241;-77
2024/01/25 10:24:50;;;;;;;7.23;1.90;;;;;;;;;;5073595;28;20215;-77
2024/01/25 10:27:16;;;;;;;5.57;2.00;;;;;;;;;;5079011;28;20175;-75
2024/01/25 10:29:42;;;;;;;11.47;2.90;;;;;;;;;;5076798;28;20257;-74
2024/01/25 10:32:11;;;;;;;13.03;2.93;;;;;;;;;;5075871;28;20657;-74
2024/01/25 10:34:37;;;;;;;7.67;2.13;;;;;;;;;;5071295;28;20214;-76
2024/01/25 10:37:05;;;;;;;15.97;2.93;;;;;;;;;;5075452;28;20367;-76
2024/01/25 10:39:32;;;;;;;9.07;2.80;;;;;;;;;;5059839;28;20206;-76
2024/01/25 10:41:59;;;;;;;11.37;2.20;;;;;;;;;;5057623;28;20178;-75
2024/01/25 10:44:25;;;;;;;11.37;2.53;;;;;;;;;;5077773;28;20251;-76
2024/01/25 10:46:51;;;;;;;12.50;3.23;;;;;;;;;;5079351;28;20282;-75
2024/01/25 10:49:17;;;;;;;13.47;3.27;;;;;;;;;;5056916;28;20708;-76
2024/01/25 10:51:44;;;;;;;13.00;2.50;;;;;;;;;;5076989;28;20222;-76
2024/01/25 10:54:11;;;;;;;19.80;3.40;;;;;;;;;;5078529;28;20244;-75
2024/01/25 10:56:37;;;;;;;14.13;2.40;;;;;;;;;;5085568;28;20174;-76
2024/01/25 10:59:03;;;;;;;10.67;2.53;;;;;;;;;;5082230;28;20298;-77
2024/01/25 11:01:29;;;;;;;12.90;2.90;;;;;;;;;;5066032;28;20203;-77
2024/01/25 11:03:55;;;;;;;10.80;2.70;;;;;;;;;;5079550;28;20714;-76
2024/01/25 11:06:23;;;;;;;11.17;2.33;;;;;;;;;;5077696;28;20653;-73
2024/01/25 11:08:49;;;;;;;10.57;2.77;;;;;;;;;;5076654;28;20232;-75
2024/01/25 11:11:16;;;;;;;16.07;3.27;;;;;;;;;;5057324;28;20640;-76
2024/01/25 11:13:42;;;;;;;10.00;2.90;;;;;;;;;;5070746;28;20677;-76
2024/01/25 11:16:20;;;;;;;12.77;2.93;;;;;;;;;;5076549;28;20219;-75
2024/01/25 11:18:58;;;;;;;23.20;8.10;;;;;;;;;;5053414;28;20677;-76
2024/01/25 11:22:00;;;;;;;16.33;3.40;;;;;;;;;;5072360;28;20177;-76
2024/01/25 11:24:26;;;;;;;6.77;2.13;;;;;;;;;;5030699;28;20360;-76
2024/01/25 11:26:54;;;;;;;15.03;2.20;;;;;;;;;;5049605;28;20178;-75
2024/01/25 11:29:22;;;;;;;16.07;1.80;;;;;;;;;;5053282;28;20753;-76
2024/01/25 11:31:49;;;;;;;6.80;2.00;;;;;;;;;;5077990;28;20780;-76
2024/01/25 11:34:15;;;;;;;8.00;2.40;;;;;;;;;;5078764;28;20661;-76
2024/01/25 11:36:41;;;;;;;11.57;1.97;;;;;;;;;;5079596;28;20218;-76
2024/01/25 11:39:09;;;;;;;11.77;3.17;;;;;;;;;;5079031;28;20186;-76
2024/01/25 11:41:36;;;;;;;17.40;2.40;;;;;;;;;;5079886;28;20229;-76
2024/01/25 11:44:05;;;;;;;7.93;2.27;;;;;;;;;;5080522;28;20214;-74
2024/01/25 11:46:32;;;;;;;12.03;2.17;;;;;;;;;;5082435;28;20696;-77
2024/01/25 11:49:01;;;;;;;12.07;1.80;;;;;;;;;;5078607;28;20209;-76
2024/01/25 11:51:27;;;;;;;7.07;2.13;;;;;;;;;;5079276;28;20199;-77
2024/01/25 11:53:53;;;;;;;7.53;2.23;;;;;;;;;;5079959;28;20194;-76
2024/01/25 11:56:29;;;;;;;9.63;2.97;;;;;;;;;;5076264;28;20210;-74
2024/01/25 11:58:56;;;;;;;12.90;2.67;;;;;;;;;;5086263;28;20266;-75
2024/01/25 12:01:23;;;;;;;12.10;2.37;;;;;;;;;;5078980;28;20628;-76
2024/01/25 12:03:49;;;;;;;12.87;2.03;;;;;;;;;;5081979;28;20222;-75
2024/01/25 12:06:15;;;;;;;7.87;2.53;;;;;;;;;;5059945;28;20183;-76
2024/01/25 12:08:41;;;;;;;9.40;2.50;;;;;;;;;;5081428;28;20174;-75
2024/01/25 12:11:08;;;;;;;8.90;2.07;;;;;;;;;;5077573;28;20802;-75
2024/01/25 12:13:35;;;;;;;13.80;2.77;;;;;;;;;;5075194;28;20214;-76
2024/01/25 12:16:02;;;;;;;10.23;2.53;;;;;;;;;;5081082;28;20576;-75
2024/01/25 12:18:28;;;;;;;14.73;2.70;;;;;;;;;;5081285;28;20183;-75
2024/01/25 12:20:54;;;;;;;10.47;2.17;;;;;;;;;;5078975;28;20262;-76
2024/01/25 12:23:20;;;;;;;9.37;1.87;;;;;;;;;;5078306;28;20234;-76
2024/01/25 12:25:46;;;;;;;11.00;2.13;;;;;;;;;;5080167;28;20214;-76
2024/01/25 12:28:12;;;;;;;8.80;2.47;;;;;;;;;;5079771;28;20218;-75
2024/01/25 12:30:38;;;;;;;14.23;2.23;;;;;;;;;;5080757;28;20230;-75
2024/01/25 12:33:05;;;;;;;5.93;1.77;;;;;;;;;;5078555;28;20203;-75
2024/01/25 12:35:30;;;;;;;9.40;1.70;;;;;;;;;;5056366;28;20349;-76
2024/01/25 12:37:56;;;;;;;9.13;2.03;;;;;;;;;;5077042;28;20224;-75
2024/01/25 12:40:22;;;;;;;9.03;1.90;;;;;;;;;;5077459;28;20719;-76
2024/01/25 12:42:48;;;;;;;7.40;1.87;;;;;;;;;;5060791;28;20213;-75
2024/01/25 12:45:15;;;;;;;12.93;2.33;;;;;;;;;;5078125;28;20179;-76
2024/01/25 12:47:41;;;;;;;12.33;2.80;;;;;;;;;;5079161;28;20181;-76
2024/01/25 12:50:07;;;;;;;11.27;2.53;;;;;;;;;;5080888;28;20215;-76
2024/01/25 12:52:33;;;;;;;12.27;2.37;;;;;;;;;;5063088;28;20204;-74
2024/01/25 12:54:59;;;;;;;11.17;2.23;;;;;;;;;;5074603;28;20226;-76
2024/01/25 12:57:25;;;;;;;6.73;1.93;;;;;;;;;;5076638;28;20211;-76
2024/01/25 12:59:51;;;;;;;17.10;3.33;;;;;;;;;;5076706;28;20752;-75
2024/01/25 13:02:17;;;;;;;13.67;3.33;;;;;;;;;;5076427;28;20206;-76
2024/01/25 13:04:43;;;;;;;11.63;2.80;;;;;;;;;;5063318;28;20633;-74
2024/01/25 13:07:09;;;;;;;10.27;2.67;;;;;;;;;;5073562;28;20723;-76
2024/01/25 13:09:37;;;;;;;18.37;2.90;;;;;;;;;;5058356;28;20207;-76
2024/01/25 13:12:03;;;;;;;8.63;2.73;;;;;;;;;;5079901;28;20205;-76
2024/01/25 13:14:29;;;;;;;10.57;2.77;;;;;;;;;;5078334;28;20635;-76
2024/01/25 13:16:55;;;;;;;7.53;2.07;;;;;;;;;;5078177;28;20237;-75
2024/01/25 13:19:22;;;;;;;12.20;2.50;;;;;;;;;;5077978;28;20207;-76
2024/01/25 13:21:48;;;;;;;11.07;2.80;;;;;;;;;;5073697;28;20203;-75
2024/01/25 13:24:14;;;;;;;9.50;2.63;;;;;;;;;;5082431;28;20205;-76
2024/01/25 13:26:40;;;;;;;8.73;1.47;;;;;;;;;;5081180;28;20171;-76
2024/01/25 13:29:06;;;;;;;12.83;2.50;;;;;;;;;;5080004;28;20206;-75
2024/01/25 13:31:32;;;;;;;8.57;2.10;;;;;;;;;;5079272;28;20217;-76
2024/01/25 13:33:58;;;;;;;7.53;1.67;;;;;;;;;;5077157;28;20218;-74
2024/01/25 13:36:24;;;;;;;12.43;3.33;;;;;;;;;;5060065;28;22106;-76
2024/01/25 13:38:50;;;;;;;8.37;2.00;;;;;;;;;;5075393;28;20178;-73
2024/01/25 13:41:17;;;;;;;9.07;2.30;;;;;;;;;;5077997;28;20213;-75
2024/01/25 13:43:42;;;;;;;14.30;2.67;;;;;;;;;;5059255;28;20271;-76
2024/01/25 13:46:09;;;;;;;11.07;2.27;;;;;;;;;;5057496;28;20685;-77
2024/01/25 13:48:35;;;;;;;6.43;2.07;;;;;;;;;;5050784;28;20290;-75
2024/01/25 13:51:01;;;;;;;10.87;3.00;;;;;;;;;;5056068;28;20341;-75
2024/01/25 13:53:27;;;;;;;9.40;1.97;;;;;;;;;;5071092;28;20810;-74
2024/01/25 13:55:53;;;;;;;10.87;2.13;;;;;;;;;;5076231;28;20202;-74
2024/01/25 13:58:19;;;;;;;10.77;2.30;;;;;;;;;;5078223;28;20268;-74
2024/01/25 14:00:45;;;;;;;11.00;2.70;;;;;;;;;;5079790;28;20212;-77
2024/01/25 14:03:11;;;;;;;10.87;2.37;;;;;;;;;;5093916;28;20195;-75
2024/01/25 14:05:37;;;;;;;8.93;2.20;;;;;;;;;;5079982;28;20588;-74
2024/01/25 14:08:03;;;;;;;9.47;2.07;;;;;;;;;;5059259;28;20290;-76
2024/01/25 14:10:29;;;;;;;13.47;2.63;;;;;;;;;;5082616;28;20211;-75
2024/01/25 14:12:55;;;;;;;11.83;2.03;;;;;;;;;;5086020;28;20253;-74
2024/01/25 14:15:22;;;;;;;8.90;2.73;;;;;;;;;;5087117;28;20225;-77
2024/01/25 14:17:55;;;;;;;15.50;2.57;;;;;;;;;;5090274;27;20552;-76
2024/01/25 14:20:22;;;;;;;8.47;2.13;;;;;;;;;;5082255;27;20222;-76
2024/01/25 14:22:48;;;;;;;8.33;1.67;;;;;;;;;;5062216;28;20211;-73
2024/01/25 14:25:14;;;;;;;7.80;1.80;;;;;;;;;;5048432;28;20238;-76
2024/01/25 14:27:40;;;;;;;10.00;2.00;;;;;;;;;;5055407;28;20286;-75